Time;durP1;ratioP1;P1;durP2;ratioP2;P2;SDS_P1;SDS_P2;PMS_P1;PMS_P2;Temp;Humidity;BMP_temperature;BMP_pressure;BME280_temperature;BME280_humidity;BME280_pressure;Samples;Min_cycle;Max_cycle;Signal;HPM_P1;HPM_P2
2023/08/04 00:01:28;;;;;;;1.43;1.20;;;;;;;;;;5093816;28;20449;-69
2023/08/04 00:03:55;;;;;;;1.00;0.90;;;;;;;;;;5093946;28;20446;-69
2023/08/04 00:06:23;;;;;;;2.00;1.00;;;;;;;;;;5093835;28;20445;-69
2023/08/04 00:08:51;;;;;;;2.27;1.00;;;;;;;;;;5093792;28;20537;-69
2023/08/04 00:11:18;;;;;;;0.80;0.80;;;;;;;;;;5093699;28;20816;-69
2023/08/04 00:13:45;;;;;;;0.90;0.90;;;;;;;;;;5093622;28;20543;-69
2023/08/04 00:16:12;;;;;;;1.73;1.00;;;;;;;;;;5093661;28;20446;-69
2023/08/04 00:18:38;;;;;;;1.10;1.00;;;;;;;;;;5093660;28;20477;-69
2023/08/04 00:21:05;;;;;;;3.57;1.20;;;;;;;;;;5093602;28;20549;-69
2023/08/04 00:23:34;;;;;;;0.90;0.90;;;;;;;;;;5093483;28;20446;-69
2023/08/04 00:26:01;;;;;;;1.53;0.90;;;;;;;;;;5093394;28;20456;-69
2023/08/04 00:28:28;;;;;;;1.00;1.00;;;;;;;;;;5093570;28;20575;-69
2023/08/04 00:30:55;;;;;;;1.33;1.00;;;;;;;;;;5093561;28;20453;-69
2023/08/04 00:33:22;;;;;;;1.33;1.23;;;;;;;;;;5093454;28;20786;-69
2023/08/04 00:35:49;;;;;;;1.20;0.90;;;;;;;;;;5093371;28;20453;-69
2023/08/04 00:38:16;;;;;;;0.97;0.87;;;;;;;;;;5093230;28;20541;-69
2023/08/04 00:40:44;;;;;;;1.00;0.90;;;;;;;;;;5093063;28;21012;-69
2023/08/04 00:43:12;;;;;;;1.73;1.10;;;;;;;;;;5093204;28;20540;-69
2023/08/04 00:45:39;;;;;;;1.33;1.23;;;;;;;;;;5093143;28;20934;-69
2023/08/04 00:48:06;;;;;;;5.50;1.20;;;;;;;;;;5093162;28;20967;-69
2023/08/04 00:50:34;;;;;;;2.40;1.20;;;;;;;;;;5093158;28;20450;-69
2023/08/04 00:53:02;;;;;;;2.20;1.27;;;;;;;;;;5093053;28;20446;-68
2023/08/04 00:55:29;;;;;;;1.30;1.20;;;;;;;;;;5092850;28;20481;-69
2023/08/04 00:57:57;;;;;;;1.57;1.47;;;;;;;;;;5093186;28;20533;-69
2023/08/04 01:00:24;;;;;;;3.10;1.20;;;;;;;;;;5093029;28;20563;-69
2023/08/04 01:02:51;;;;;;;1.20;1.10;;;;;;;;;;5092963;28;20536;-69
2023/08/04 01:05:18;;;;;;;1.20;1.10;;;;;;;;;;5092993;28;20836;-69
2023/08/04 01:07:51;;;;;;;1.30;1.20;;;;;;;;;;5092879;28;20545;-69
2023/08/04 01:10:20;;;;;;;1.20;1.20;;;;;;;;;;5093107;28;20534;-69
2023/08/04 01:12:48;;;;;;;1.83;1.30;;;;;;;;;;5093035;28;20545;-69
2023/08/04 01:15:17;;;;;;;2.90;1.30;;;;;;;;;;5092979;28;20484;-69
2023/08/04 01:17:44;;;;;;;1.30;1.10;;;;;;;;;;5092965;28;20532;-69
2023/08/04 01:20:11;;;;;;;1.30;1.20;;;;;;;;;;5092721;28;20961;-69
2023/08/04 01:22:40;;;;;;;3.43;1.40;;;;;;;;;;5092738;28;21012;-69
2023/08/04 01:25:07;;;;;;;1.47;1.37;;;;;;;;;;5092983;28;20541;-69
2023/08/04 01:27:36;;;;;;;4.90;1.30;;;;;;;;;;5092654;28;20979;-69
2023/08/04 01:30:04;;;;;;;1.43;1.30;;;;;;;;;;5092693;28;20540;-69
2023/08/04 01:32:32;;;;;;;1.47;1.37;;;;;;;;;;5092713;28;20450;-69
2023/08/04 01:34:59;;;;;;;1.40;1.30;;;;;;;;;;5092637;28;20442;-69
2023/08/04 01:37:26;;;;;;;1.50;1.40;;;;;;;;;;5092854;28;20469;-69
2023/08/04 01:39:54;;;;;;;1.80;1.43;;;;;;;;;;5092666;28;20478;-68
2023/08/04 01:42:21;;;;;;;1.30;1.20;;;;;;;;;;5092744;28;20883;-69
2023/08/04 01:44:48;;;;;;;3.43;1.50;;;;;;;;;;5092560;28;20491;-69
2023/08/04 01:47:15;;;;;;;1.90;1.50;;;;;;;;;;5092516;28;20455;-69
2023/08/04 01:49:41;;;;;;;1.27;1.17;;;;;;;;;;5092813;28;20540;-69
2023/08/04 01:52:08;;;;;;;1.93;1.60;;;;;;;;;;5092470;28;20450;-69
2023/08/04 01:54:35;;;;;;;4.33;1.67;;;;;;;;;;5094693;28;20536;-69
2023/08/04 01:57:04;;;;;;;1.90;1.50;;;;;;;;;;5096326;28;20445;-69
2023/08/04 01:59:31;;;;;;;1.57;1.47;;;;;;;;;;5096103;28;21058;-69
2023/08/04 02:01:58;;;;;;;1.37;1.20;;;;;;;;;;5096143;28;20445;-69
2023/08/04 02:04:25;;;;;;;2.90;2.37;;;;;;;;;;5096315;28;20452;-68
2023/08/04 02:06:52;;;;;;;2.13;1.93;;;;;;;;;;5096248;28;20532;-68
2023/08/04 02:09:19;;;;;;;2.50;2.03;;;;;;;;;;5096081;28;20477;-69
2023/08/04 02:11:46;;;;;;;2.30;1.50;;;;;;;;;;5096011;28;20449;-69
2023/08/04 02:14:14;;;;;;;1.50;1.30;;;;;;;;;;5095904;28;20529;-69
2023/08/04 02:16:41;;;;;;;1.97;1.87;;;;;;;;;;5095852;28;20446;-69
2023/08/04 02:19:09;;;;;;;2.37;2.13;;;;;;;;;;5095950;28;20442;-68
2023/08/04 02:21:36;;;;;;;3.00;2.00;;;;;;;;;;5096020;28;20458;-69
2023/08/04 02:24:03;;;;;;;3.43;2.20;;;;;;;;;;5095818;28;20808;-69
2023/08/04 02:26:30;;;;;;;1.90;1.80;;;;;;;;;;5095714;28;20443;-69
2023/08/04 02:28:57;;;;;;;1.93;1.63;;;;;;;;;;5095516;28;20944;-69
2023/08/04 02:31:26;;;;;;;1.73;1.60;;;;;;;;;;5095830;28;20548;-68
2023/08/04 02:33:54;;;;;;;1.97;1.80;;;;;;;;;;5095683;28;20445;-68
2023/08/04 02:36:21;;;;;;;2.67;2.47;;;;;;;;;;5095643;28;20732;-69
2023/08/04 02:38:48;;;;;;;6.33;2.20;;;;;;;;;;5095553;28;20477;-69
2023/08/04 02:41:15;;;;;;;1.80;1.70;;;;;;;;;;5095263;28;21008;-69
2023/08/04 02:43:42;;;;;;;1.80;1.70;;;;;;;;;;5095279;28;20966;-69
2023/08/04 02:46:10;;;;;;;2.10;2.00;;;;;;;;;;5095482;28;20784;-69
2023/08/04 02:48:38;;;;;;;2.50;2.03;;;;;;;;;;5095612;28;20452;-69
2023/08/04 02:51:06;;;;;;;2.90;2.20;;;;;;;;;;5095327;28;20472;-69
2023/08/04 02:53:33;;;;;;;2.80;1.90;;;;;;;;;;5095198;28;20872;-69
2023/08/04 02:56:00;;;;;;;2.50;2.30;;;;;;;;;;5094947;28;20977;-69
2023/08/04 02:58:28;;;;;;;2.40;2.23;;;;;;;;;;5095358;28;20870;-69
2023/08/04 03:00:55;;;;;;;2.40;2.20;;;;;;;;;;5095167;28;20939;-69
2023/08/04 03:03:22;;;;;;;2.57;2.37;;;;;;;;;;5095026;28;20952;-69
2023/08/04 03:05:50;;;;;;;3.20;2.57;;;;;;;;;;5094893;28;20537;-69
2023/08/04 03:08:17;;;;;;;2.90;2.30;;;;;;;;;;5094845;28;20446;-69
2023/08/04 03:10:44;;;;;;;3.87;2.87;;;;;;;;;;5094786;28;20538;-69
2023/08/04 03:13:11;;;;;;;2.80;2.60;;;;;;;;;;5094941;28;20457;-69
2023/08/04 03:15:38;;;;;;;4.53;2.43;;;;;;;;;;5094875;28;20446;-69
2023/08/04 03:18:05;;;;;;;2.60;2.40;;;;;;;;;;5094839;28;20456;-69
2023/08/04 03:20:36;;;;;;;2.60;2.40;;;;;;;;;;5094751;28;20820;-69
2023/08/04 03:23:05;;;;;;;2.43;2.23;;;;;;;;;;5094582;28;20539;-68
2023/08/04 03:25:31;;;;;;;3.50;2.27;;;;;;;;;;5094663;28;20450;-69
2023/08/04 03:27:58;;;;;;;2.80;2.60;;;;;;;;;;5094610;28;20457;-69
2023/08/04 03:30:25;;;;;;;2.83;2.53;;;;;;;;;;5094331;28;20461;-69
2023/08/04 03:32:52;;;;;;;2.50;2.40;;;;;;;;;;5094468;28;20541;-69
2023/08/04 03:35:19;;;;;;;2.60;2.47;;;;;;;;;;5094277;28;20449;-69
2023/08/04 03:37:47;;;;;;;3.90;2.40;;;;;;;;;;5094141;28;21031;-68
2023/08/04 03:40:15;;;;;;;7.73;3.00;;;;;;;;;;5094362;28;20538;-69
2023/08/04 03:42:43;;;;;;;3.00;2.20;;;;;;;;;;5094149;28;20450;-69
2023/08/04 03:45:10;;;;;;;2.67;2.47;;;;;;;;;;5094267;28;20499;-69
2023/08/04 03:47:37;;;;;;;2.77;2.57;;;;;;;;;;5094185;28;20460;-69
2023/08/04 03:50:04;;;;;;;3.03;2.40;;;;;;;;;;5093977;28;20442;-69
2023/08/04 03:52:31;;;;;;;5.10;2.83;;;;;;;;;;5094300;28;20882;-69
2023/08/04 03:54:58;;;;;;;4.30;2.80;;;;;;;;;;5093943;28;20560;-68
2023/08/04 03:57:26;;;;;;;2.93;2.70;;;;;;;;;;5094076;28;20533;-69
2023/08/04 03:59:53;;;;;;;2.30;2.10;;;;;;;;;;5093892;28;20495;-69
2023/08/04 04:02:20;;;;;;;6.13;2.70;;;;;;;;;;5093877;28;20536;-69
2023/08/04 04:04:48;;;;;;;2.43;2.33;;;;;;;;;;5094300;28;20781;-69
2023/08/04 04:07:15;;;;;;;5.10;3.50;;;;;;;;;;5093946;28;20484;-69
2023/08/04 04:09:42;;;;;;;4.50;2.40;;;;;;;;;;5093885;28;20486;-69
2023/08/04 04:12:09;;;;;;;4.00;3.13;;;;;;;;;;5093794;28;20544;-69
2023/08/04 04:14:38;;;;;;;5.00;2.73;;;;;;;;;;5093579;28;20944;-69
2023/08/04 04:17:05;;;;;;;3.27;2.83;;;;;;;;;;5093147;28;20449;-69
2023/08/04 04:19:32;;;;;;;3.57;2.73;;;;;;;;;;5093557;28;21011;-68
2023/08/04 04:21:59;;;;;;;6.83;2.63;;;;;;;;;;5093657;28;20483;-68
2023/08/04 04:24:26;;;;;;;5.60;2.90;;;;;;;;;;5093566;28;20442;-69
2023/08/04 04:26:53;;;;;;;4.50;3.13;;;;;;;;;;5093479;28;20894;-69
2023/08/04 04:29:19;;;;;;;5.20;2.90;;;;;;;;;;5093440;28;20540;-69
2023/08/04 04:31:48;;;;;;;4.27;2.87;;;;;;;;;;5093295;28;20540;-69
2023/08/04 04:34:15;;;;;;;3.30;2.53;;;;;;;;;;5093538;28;20533;-69
2023/08/04 04:36:42;;;;;;;7.07;3.13;;;;;;;;;;5093401;28;20481;-69
2023/08/04 04:39:09;;;;;;;3.83;3.20;;;;;;;;;;5093390;28;20963;-69
2023/08/04 04:41:37;;;;;;;4.03;3.47;;;;;;;;;;5093231;28;20494;-69
2023/08/04 04:44:04;;;;;;;6.50;3.40;;;;;;;;;;5093215;28;20523;-69
2023/08/04 04:46:31;;;;;;;3.70;2.63;;;;;;;;;;5093113;28;20479;-69
2023/08/04 04:48:59;;;;;;;2.80;2.60;;;;;;;;;;5093298;28;20475;-69
2023/08/04 04:51:28;;;;;;;3.30;3.10;;;;;;;;;;5093256;28;20547;-69
2023/08/04 04:53:55;;;;;;;3.87;3.10;;;;;;;;;;5093201;28;20820;-69
2023/08/04 04:56:21;;;;;;;6.40;3.13;;;;;;;;;;5092969;28;20564;-69
2023/08/04 04:58:48;;;;;;;6.23;3.57;;;;;;;;;;5092967;28;20538;-69
2023/08/04 05:01:15;;;;;;;3.93;3.50;;;;;;;;;;5092875;28;20492;-69
2023/08/04 05:03:42;;;;;;;3.47;3.17;;;;;;;;;;5093213;28;20539;-69
2023/08/04 05:06:10;;;;;;;5.73;3.17;;;;;;;;;;5093035;28;20443;-69
2023/08/04 05:08:37;;;;;;;8.80;2.80;;;;;;;;;;5093021;28;20469;-69
2023/08/04 05:11:04;;;;;;;4.60;3.10;;;;;;;;;;5092930;28;20889;-69
2023/08/04 05:13:31;;;;;;;5.53;3.67;;;;;;;;;;5092792;28;21005;-69
2023/08/04 05:15:58;;;;;;;5.40;3.17;;;;;;;;;;5093066;28;20952;-69
2023/08/04 05:18:25;;;;;;;6.27;3.03;;;;;;;;;;5092979;28;20536;-69
2023/08/04 05:20:52;;;;;;;3.17;2.87;;;;;;;;;;5092889;28;20479;-69
2023/08/04 05:23:20;;;;;;;3.07;2.77;;;;;;;;;;5092843;28;20443;-69
2023/08/04 05:25:47;;;;;;;5.70;3.10;;;;;;;;;;5092748;28;20446;-69
2023/08/04 05:28:20;;;;;;;3.50;3.17;;;;;;;;;;5092737;28;20536;-69
2023/08/04 05:30:47;;;;;;;4.07;2.97;;;;;;;;;;5096942;28;20446;-69
2023/08/04 05:33:13;;;;;;;3.37;2.90;;;;;;;;;;5096839;28;20442;-69
2023/08/04 05:35:41;;;;;;;3.37;2.80;;;;;;;;;;5096695;28;20533;-69
2023/08/04 05:38:08;;;;;;;5.73;2.60;;;;;;;;;;5096644;28;20449;-69
2023/08/04 05:40:36;;;;;;;4.17;2.90;;;;;;;;;;5096451;28;20475;-69
2023/08/04 05:43:04;;;;;;;3.40;2.50;;;;;;;;;;5096492;28;20536;-69
2023/08/04 05:45:35;;;;;;;2.57;2.47;;;;;;;;;;5096602;28;20446;-69
2023/08/04 05:48:02;;;;;;;6.63;3.00;;;;;;;;;;5096609;28;20533;-69
2023/08/04 05:50:29;;;;;;;4.70;3.07;;;;;;;;;;5096471;28;20786;-69
2023/08/04 05:52:56;;;;;;;5.57;2.90;;;;;;;;;;5096272;28;20534;-69
2023/08/04 05:55:23;;;;;;;3.20;2.20;;;;;;;;;;5096037;28;20466;-68
2023/08/04 05:57:52;;;;;;;7.00;2.50;;;;;;;;;;5096459;28;20536;-69
2023/08/04 06:00:19;;;;;;;7.90;3.10;;;;;;;;;;5096233;28;20446;-69
2023/08/04 06:02:46;;;;;;;2.37;2.17;;;;;;;;;;5096221;28;20873;-69
2023/08/04 06:05:13;;;;;;;8.03;2.67;;;;;;;;;;5096146;28;20540;-68
2023/08/04 06:07:40;;;;;;;4.43;2.60;;;;;;;;;;5096051;28;20553;-69
2023/08/04 06:10:08;;;;;;;4.40;2.57;;;;;;;;;;5096194;28;20651;-69
2023/08/04 06:12:35;;;;;;;3.83;2.60;;;;;;;;;;5096057;28;20530;-68
2023/08/04 06:15:03;;;;;;;5.30;3.00;;;;;;;;;;5096031;28;20450;-69
2023/08/04 06:17:30;;;;;;;4.30;2.13;;;;;;;;;;5095894;28;20529;-68
2023/08/04 06:19:57;;;;;;;3.20;2.23;;;;;;;;;;5095822;28;20442;-68
2023/08/04 06:22:24;;;;;;;2.87;2.53;;;;;;;;;;5095506;28;21005;-68
2023/08/04 06:24:51;;;;;;;5.20;2.30;;;;;;;;;;5095826;28;20527;-68
2023/08/04 06:27:18;;;;;;;6.33;2.33;;;;;;;;;;5095733;28;20478;-68
2023/08/04 06:29:45;;;;;;;4.43;2.10;;;;;;;;;;5095653;28;20873;-68
2023/08/04 06:32:13;;;;;;;5.47;2.60;;;;;;;;;;5095571;28;20450;-69
2023/08/04 06:34:40;;;;;;;7.33;2.93;;;;;;;;;;5095439;28;20456;-68
2023/08/04 06:37:07;;;;;;;7.37;2.33;;;;;;;;;;5095621;28;20536;-68
2023/08/04 06:39:34;;;;;;;5.70;2.23;;;;;;;;;;5095074;28;20443;-68
2023/08/04 06:42:01;;;;;;;4.23;2.70;;;;;;;;;;5095396;28;20573;-68
2023/08/04 06:44:28;;;;;;;5.10;2.40;;;;;;;;;;5095207;28;20450;-68
2023/08/04 06:46:55;;;;;;;3.77;2.60;;;;;;;;;;5095164;28;20969;-68
2023/08/04 06:49:23;;;;;;;4.53;2.53;;;;;;;;;;5095217;28;20453;-68
2023/08/04 06:51:50;;;;;;;4.23;2.83;;;;;;;;;;5095174;28;21015;-68
2023/08/04 06:54:17;;;;;;;2.73;2.37;;;;;;;;;;5095276;28;20455;-68
2023/08/04 06:56:44;;;;;;;5.80;2.17;;;;;;;;;;5094900;28;21028;-68
2023/08/04 06:59:12;;;;;;;6.23;2.20;;;;;;;;;;5095063;28;20537;-68
2023/08/04 07:01:38;;;;;;;6.33;2.47;;;;;;;;;;5094903;28;20479;-68
2023/08/04 07:04:05;;;;;;;2.70;2.20;;;;;;;;;;5094838;28;20530;-68
2023/08/04 07:06:34;;;;;;;5.23;2.10;;;;;;;;;;5095037;28;20443;-68
2023/08/04 07:09:01;;;;;;;3.70;2.77;;;;;;;;;;5094955;28;20447;-68
2023/08/04 07:11:28;;;;;;;3.50;2.50;;;;;;;;;;5110618;28;21018;-68
2023/08/04 07:13:55;;;;;;;6.27;2.20;;;;;;;;;;5100426;28;20537;-68
2023/08/04 07:16:22;;;;;;;2.17;2.03;;;;;;;;;;5115023;28;20537;-69
2023/08/04 07:18:49;;;;;;;3.10;2.73;;;;;;;;;;5115095;28;20442;-69
2023/08/04 07:21:16;;;;;;;5.83;2.83;;;;;;;;;;5114789;28;20469;-69
2023/08/04 07:23:44;;;;;;;7.20;2.70;;;;;;;;;;5114972;28;20879;-68
2023/08/04 07:26:11;;;;;;;4.17;2.53;;;;;;;;;;5114914;28;20546;-69
2023/08/04 07:28:38;;;;;;;2.90;2.33;;;;;;;;;;5106731;28;20530;-69
2023/08/04 07:31:05;;;;;;;9.20;2.67;;;;;;;;;;5094130;28;20530;-69
2023/08/04 07:33:32;;;;;;;5.00;2.40;;;;;;;;;;5109196;28;20879;-69
2023/08/04 07:35:59;;;;;;;3.13;1.67;;;;;;;;;;5114869;28;20537;-68
2023/08/04 07:38:28;;;;;;;5.23;2.60;;;;;;;;;;5114368;28;20936;-67
2023/08/04 07:40:56;;;;;;;2.93;2.23;;;;;;;;;;5114504;28;20487;-68
2023/08/04 07:43:23;;;;;;;4.07;2.30;;;;;;;;;;5114455;28;20525;-68
2023/08/04 07:45:51;;;;;;;6.50;2.70;;;;;;;;;;5098646;28;20467;-68
2023/08/04 07:48:18;;;;;;;6.03;3.20;;;;;;;;;;5094241;28;20446;-68
2023/08/04 07:50:47;;;;;;;6.67;2.87;;;;;;;;;;5094041;28;20798;-68
2023/08/04 07:53:14;;;;;;;2.60;2.40;;;;;;;;;;5093523;28;20478;-68
2023/08/04 07:55:40;;;;;;;4.70;2.20;;;;;;;;;;5093702;28;20463;-68
2023/08/04 07:58:09;;;;;;;2.90;1.87;;;;;;;;;;5093662;28;20445;-65
2023/08/04 08:00:36;;;;;;;3.30;2.03;;;;;;;;;;5093917;28;20526;-65
2023/08/04 08:03:03;;;;;;;2.63;2.20;;;;;;;;;;5093846;28;20487;-68
2023/08/04 08:05:30;;;;;;;1.90;1.70;;;;;;;;;;5093935;28;20609;-68
2023/08/04 08:07:57;;;;;;;2.20;1.80;;;;;;;;;;5093798;28;20447;-68
2023/08/04 08:10:24;;;;;;;3.63;2.00;;;;;;;;;;5093575;28;20453;-68
2023/08/04 08:12:51;;;;;;;1.80;1.70;;;;;;;;;;5093623;28;20882;-69
2023/08/04 08:15:19;;;;;;;6.20;2.23;;;;;;;;;;5093627;28;20449;-68
2023/08/04 08:17:46;;;;;;;3.30;2.57;;;;;;;;;;5093511;28;20513;-69
2023/08/04 08:20:13;;;;;;;6.73;2.53;;;;;;;;;;5093509;28;20447;-69
2023/08/04 08:22:40;;;;;;;3.83;2.73;;;;;;;;;;5093301;28;20510;-68
2023/08/04 08:25:10;;;;;;;8.60;3.77;;;;;;;;;;5093393;28;20530;-68
2023/08/04 08:27:37;;;;;;;4.43;2.00;;;;;;;;;;5093483;28;20448;-68
2023/08/04 08:30:04;;;;;;;2.23;1.90;;;;;;;;;;5093416;28;20867;-68
2023/08/04 08:32:32;;;;;;;5.33;2.20;;;;;;;;;;5093359;28;20449;-68
2023/08/04 08:34:59;;;;;;;4.57;2.60;;;;;;;;;;5093209;28;20534;-68
2023/08/04 08:37:26;;;;;;;2.10;1.90;;;;;;;;;;5093178;28;20847;-68
2023/08/04 08:39:53;;;;;;;3.00;2.33;;;;;;;;;;5093029;28;20543;-68
2023/08/04 08:42:20;;;;;;;2.27;1.80;;;;;;;;;;5093244;28;20517;-68
2023/08/04 08:44:47;;;;;;;3.00;2.07;;;;;;;;;;5093143;28;20533;-67
2023/08/04 08:47:14;;;;;;;4.03;2.10;;;;;;;;;;5093243;28;20451;-67
2023/08/04 08:49:47;;;;;;;3.90;2.20;;;;;;;;;;5093045;28;20446;-68
2023/08/04 08:52:14;;;;;;;3.87;1.80;;;;;;;;;;5093021;28;20486;-68
2023/08/04 08:54:41;;;;;;;4.60;1.90;;;;;;;;;;5092982;28;20438;-68
2023/08/04 08:57:08;;;;;;;2.77;1.57;;;;;;;;;;5093134;28;21306;-68
2023/08/04 08:59:35;;;;;;;3.57;1.90;;;;;;;;;;5093060;28;20534;-67
2023/08/04 09:02:02;;;;;;;3.40;1.50;;;;;;;;;;5092794;28;20550;-69
2023/08/04 09:04:29;;;;;;;2.10;1.90;;;;;;;;;;5099327;28;20529;-68
2023/08/04 09:06:58;;;;;;;3.30;1.70;;;;;;;;;;5099373;28;20442;-68
2023/08/04 09:09:25;;;;;;;4.23;2.00;;;;;;;;;;5099746;28;20439;-68
2023/08/04 09:11:52;;;;;;;3.00;1.70;;;;;;;;;;5099789;28;20446;-68
2023/08/04 09:14:19;;;;;;;2.03;1.70;;;;;;;;;;5099630;28;20531;-68
2023/08/04 09:16:49;;;;;;;3.40;1.90;;;;;;;;;;5099605;28;20443;-68
2023/08/04 09:19:16;;;;;;;3.00;1.70;;;;;;;;;;5099498;28;20550;-68
2023/08/04 09:21:43;;;;;;;3.10;2.07;;;;;;;;;;5099651;28;20531;-68
2023/08/04 09:24:13;;;;;;;4.40;1.90;;;;;;;;;;5099491;28;20443;-68
2023/08/04 09:26:43;;;;;;;2.80;2.13;;;;;;;;;;5099428;28;20439;-69
2023/08/04 09:29:11;;;;;;;3.30;2.07;;;;;;;;;;5099341;28;20482;-69
2023/08/04 09:31:38;;;;;;;2.17;1.57;;;;;;;;;;5099352;28;20957;-69
2023/08/04 09:34:05;;;;;;;2.47;1.50;;;;;;;;;;5099329;28;20534;-69
2023/08/04 09:36:33;;;;;;;3.67;1.73;;;;;;;;;;5099568;28;20559;-68
2023/08/04 09:39:04;;;;;;;2.23;1.70;;;;;;;;;;5099609;28;20451;-68
2023/08/04 09:41:33;;;;;;;2.77;1.67;;;;;;;;;;5099321;28;20845;-68
2023/08/04 09:44:04;;;;;;;2.40;2.03;;;;;;;;;;5099410;28;20472;-68
2023/08/04 09:46:31;;;;;;;7.93;2.10;;;;;;;;;;5099239;28;20445;-68
2023/08/04 09:48:59;;;;;;;2.27;1.40;;;;;;;;;;5099244;28;20864;-68
2023/08/04 09:51:26;;;;;;;2.00;1.80;;;;;;;;;;5099419;28;20449;-68
2023/08/04 09:53:54;;;;;;;5.43;1.83;;;;;;;;;;5099241;28;20446;-69
2023/08/04 09:56:23;;;;;;;5.30;1.80;;;;;;;;;;5099077;28;20478;-68
2023/08/04 09:58:51;;;;;;;4.53;1.80;;;;;;;;;;5099171;28;20442;-68
2023/08/04 10:01:19;;;;;;;3.00;1.67;;;;;;;;;;5099057;28;20447;-68
2023/08/04 10:03:50;;;;;;;5.30;1.93;;;;;;;;;;5099246;28;20478;-68
2023/08/04 10:06:17;;;;;;;2.03;1.50;;;;;;;;;;5099267;28;20453;-68
2023/08/04 10:08:44;;;;;;;2.33;1.93;;;;;;;;;;5099011;28;20863;-68
2023/08/04 10:11:11;;;;;;;2.60;1.80;;;;;;;;;;5099047;28;21012;-68
2023/08/04 10:13:39;;;;;;;2.63;2.00;;;;;;;;;;5098999;28;20541;-68
2023/08/04 10:16:10;;;;;;;4.40;2.20;;;;;;;;;;5095247;28;20451;-68
2023/08/04 10:18:53;;;;;;;2.87;1.83;;;;;;;;;;5095960;28;20542;-68
2023/08/04 10:21:21;;;;;;;3.43;1.53;;;;;;;;;;5095682;28;20467;-68
2023/08/04 10:23:48;;;;;;;1.70;1.60;;;;;;;;;;5095596;28;20830;-68
2023/08/04 10:26:15;;;;;;;4.10;3.10;;;;;;;;;;5095524;28;20537;-68
2023/08/04 10:29:08;;;;;;;5.93;3.70;;;;;;;;;;5095688;28;20447;-68
2023/08/04 10:31:46;;;;;;;3.33;1.67;;;;;;;;;;5095617;28;20497;-67
2023/08/04 10:34:17;;;;;;;1.93;1.60;;;;;;;;;;5095345;28;20450;-67
2023/08/04 10:37:01;;;;;;;1.50;1.40;;;;;;;;;;5095690;28;20443;-68
2023/08/04 10:39:28;;;;;;;2.97;1.50;;;;;;;;;;5095640;28;20485;-68
2023/08/04 10:41:56;;;;;;;2.30;1.73;;;;;;;;;;5095448;28;20447;-68
2023/08/04 10:44:25;;;;;;;5.87;1.63;;;;;;;;;;5095271;28;20454;-68
2023/08/04 10:46:59;;;;;;;2.00;1.63;;;;;;;;;;5095139;28;20806;-68
2023/08/04 10:49:26;;;;;;;3.13;1.90;;;;;;;;;;5095418;28;20447;-68
2023/08/04 10:51:53;;;;;;;1.90;1.63;;;;;;;;;;5095124;28;20443;-68
2023/08/04 10:54:21;;;;;;;4.03;2.00;;;;;;;;;;5095398;28;20450;-68
2023/08/04 10:56:47;;;;;;;2.63;1.87;;;;;;;;;;5094781;28;20811;-68
2023/08/04 10:59:14;;;;;;;2.03;1.30;;;;;;;;;;5095078;28;20533;-68
2023/08/04 11:01:41;;;;;;;3.33;1.97;;;;;;;;;;5095128;28;20445;-68
2023/08/04 11:04:10;;;;;;;4.10;1.80;;;;;;;;;;5095019;28;20482;-68
2023/08/04 11:06:37;;;;;;;2.83;2.10;;;;;;;;;;5095031;28;20871;-68
2023/08/04 11:09:04;;;;;;;2.30;1.93;;;;;;;;;;5094894;28;20450;-68
2023/08/04 11:11:31;;;;;;;1.70;1.60;;;;;;;;;;5094394;28;20541;-68
2023/08/04 11:13:58;;;;;;;3.07;1.80;;;;;;;;;;5094497;28;20447;-68
2023/08/04 11:16:26;;;;;;;3.33;1.97;;;;;;;;;;5094837;28;20551;-68
2023/08/04 11:18:53;;;;;;;3.00;1.87;;;;;;;;;;5094735;28;20447;-67
2023/08/04 11:21:21;;;;;;;5.57;2.07;;;;;;;;;;5093932;28;20451;-68
2023/08/04 11:23:49;;;;;;;5.83;2.00;;;;;;;;;;5094527;28;20890;-68
2023/08/04 11:26:16;;;;;;;3.87;1.93;;;;;;;;;;5093417;28;20449;-68
2023/08/04 11:28:43;;;;;;;3.00;1.87;;;;;;;;;;5094407;28;20446;-68
2023/08/04 11:31:11;;;;;;;1.67;1.57;;;;;;;;;;5094645;28;20490;-68
2023/08/04 11:33:43;;;;;;;3.77;1.90;;;;;;;;;;5094467;28;20496;-68
2023/08/04 11:36:10;;;;;;;3.37;1.57;;;;;;;;;;5094475;28;20440;-67
2023/08/04 11:38:39;;;;;;;4.53;1.80;;;;;;;;;;5094254;28;20439;-68
2023/08/04 11:41:09;;;;;;;1.57;1.30;;;;;;;;;;5094202;28;20537;-68
2023/08/04 11:43:36;;;;;;;3.00;1.47;;;;;;;;;;5094156;28;20482;-67
2023/08/04 11:46:06;;;;;;;1.50;1.40;;;;;;;;;;5094002;28;20447;-68
2023/08/04 11:48:34;;;;;;;1.80;1.20;;;;;;;;;;5094202;28;20443;-68
2023/08/04 11:51:01;;;;;;;1.47;1.30;;;;;;;;;;5094125;28;20443;-68
2023/08/04 11:53:28;;;;;;;1.73;1.37;;;;;;;;;;5093963;28;20857;-67
2023/08/04 11:55:57;;;;;;;1.40;1.30;;;;;;;;;;5093917;28;20561;-67
2023/08/04 11:58:31;;;;;;;1.13;1.03;;;;;;;;;;5094168;28;20834;-68
2023/08/04 12:00:58;;;;;;;2.20;1.67;;;;;;;;;;5093904;28;20454;-67
2023/08/04 12:03:25;;;;;;;2.13;1.20;;;;;;;;;;5093869;28;20485;-67
2023/08/04 12:05:52;;;;;;;1.50;1.33;;;;;;;;;;5093751;28;20451;-67
2023/08/04 12:08:19;;;;;;;2.27;1.30;;;;;;;;;;5093669;28;20529;-68
2023/08/04 12:11:00;;;;;;;2.50;1.40;;;;;;;;;;5093880;28;20478;-67
2023/08/04 12:13:34;;;;;;;1.17;1.00;;;;;;;;;;5093757;28;20443;-68
2023/08/04 12:16:01;;;;;;;2.80;1.33;;;;;;;;;;5093571;28;20458;-67
2023/08/04 12:18:29;;;;;;;2.00;1.60;;;;;;;;;;5093456;28;20479;-68
2023/08/04 12:20:57;;;;;;;1.57;1.47;;;;;;;;;;5093724;28;20442;-68
2023/08/04 12:23:24;;;;;;;2.33;1.50;;;;;;;;;;5093548;28;20503;-67
2023/08/04 12:25:51;;;;;;;1.97;1.60;;;;;;;;;;5093605;28;20680;-67
2023/08/04 12:28:18;;;;;;;2.30;1.33;;;;;;;;;;5093555;28;20537;-67
2023/08/04 12:30:46;;;;;;;1.73;1.63;;;;;;;;;;5093469;28;20445;-68
2023/08/04 12:33:13;;;;;;;2.57;1.50;;;;;;;;;;5093455;28;21170;-68
2023/08/04 12:35:40;;;;;;;2.27;1.60;;;;;;;;;;5093459;28;20538;-67
2023/08/04 12:38:07;;;;;;;2.20;1.63;;;;;;;;;;5093065;28;20443;-68
2023/08/04 12:40:35;;;;;;;1.47;1.37;;;;;;;;;;5093309;28;20450;-68
2023/08/04 12:43:02;;;;;;;4.67;1.70;;;;;;;;;;5093180;28;20505;-68
2023/08/04 12:45:29;;;;;;;3.17;1.47;;;;;;;;;;5093087;28;20982;-68
2023/08/04 12:47:58;;;;;;;2.40;1.60;;;;;;;;;;5093364;28;20875;-68
2023/08/04 12:50:25;;;;;;;2.33;1.63;;;;;;;;;;5093261;28;20450;-68
2023/08/04 12:52:52;;;;;;;2.00;1.43;;;;;;;;;;5093055;28;20452;-68
2023/08/04 12:55:19;;;;;;;2.80;1.33;;;;;;;;;;5093055;28;20553;-67
2023/08/04 12:57:46;;;;;;;2.13;1.50;;;;;;;;;;5093091;28;20538;-68
2023/08/04 13:00:14;;;;;;;2.10;1.13;;;;;;;;;;5093031;28;20885;-68
2023/08/04 13:02:41;;;;;;;3.20;1.60;;;;;;;;;;5093172;28;20443;-67
2023/08/04 13:05:09;;;;;;;6.30;2.37;;;;;;;;;;5093067;28;20538;-68
2023/08/04 13:07:36;;;;;;;3.93;1.67;;;;;;;;;;5093033;28;20443;-68
2023/08/04 13:10:03;;;;;;;2.33;1.70;;;;;;;;;;5092986;28;20533;-67
2023/08/04 13:12:30;;;;;;;2.70;1.50;;;;;;;;;;5093041;28;20859;-68
2023/08/04 13:14:57;;;;;;;1.97;1.43;;;;;;;;;;5092904;28;20997;-68
2023/08/04 13:17:24;;;;;;;3.10;1.20;;;;;;;;;;5093049;28;20447;-68
2023/08/04 13:19:51;;;;;;;5.83;1.87;;;;;;;;;;5092918;28;20522;-67
2023/08/04 13:22:19;;;;;;;2.30;1.70;;;;;;;;;;5092853;28;20538;-68
2023/08/04 13:24:46;;;;;;;1.90;1.60;;;;;;;;;;5092791;28;20514;-68
2023/08/04 13:27:13;;;;;;;3.80;1.50;;;;;;;;;;5092706;28;20564;-67
2023/08/04 13:29:40;;;;;;;2.20;1.50;;;;;;;;;;5092816;28;20533;-68
2023/08/04 13:32:07;;;;;;;2.67;1.67;;;;;;;;;;5092641;28;21009;-68
2023/08/04 13:34:36;;;;;;;1.60;1.50;;;;;;;;;;5092866;28;20910;-67
2023/08/04 13:37:03;;;;;;;2.33;1.83;;;;;;;;;;5092882;28;20439;-67
2023/08/04 13:39:31;;;;;;;1.97;1.50;;;;;;;;;;5092645;28;20443;-67
2023/08/04 13:41:58;;;;;;;1.87;1.70;;;;;;;;;;5092584;28;20449;-67
2023/08/04 13:44:25;;;;;;;5.83;2.50;;;;;;;;;;5092689;28;20573;-67
2023/08/04 13:46:52;;;;;;;2.53;1.50;;;;;;;;;;5092615;28;20503;-68
2023/08/04 13:49:19;;;;;;;2.30;1.90;;;;;;;;;;5092702;28;20533;-67
2023/08/04 13:51:46;;;;;;;2.40;1.47;;;;;;;;;;5096407;28;20537;-67
2023/08/04 13:54:13;;;;;;;2.13;1.93;;;;;;;;;;5096421;28;20486;-67
2023/08/04 13:56:41;;;;;;;2.10;1.70;;;;;;;;;;5096166;28;20826;-67
2023/08/04 13:59:08;;;;;;;4.07;1.30;;;;;;;;;;5096237;28;20999;-67
2023/08/04 14:01:35;;;;;;;1.73;1.50;;;;;;;;;;5096303;28;20457;-67
2023/08/04 14:04:02;;;;;;;3.53;1.50;;;;;;;;;;5096484;28;20487;-67
2023/08/04 14:06:30;;;;;;;2.07;1.63;;;;;;;;;;5096142;28;20446;-67
2023/08/04 14:08:57;;;;;;;3.40;1.60;;;;;;;;;;5095921;28;20453;-67
2023/08/04 14:11:23;;;;;;;2.00;1.90;;;;;;;;;;5096293;28;20545;-67
2023/08/04 14:13:52;;;;;;;1.53;1.17;;;;;;;;;;5095918;28;20447;-67
2023/08/04 14:16:19;;;;;;;2.13;1.30;;;;;;;;;;5096080;28;20482;-67
2023/08/04 14:18:46;;;;;;;2.27;1.20;;;;;;;;;;5095900;28;20447;-67
2023/08/04 14:21:13;;;;;;;2.23;1.30;;;;;;;;;;5095790;28;20581;-67
2023/08/04 14:23:40;;;;;;;1.43;1.33;;;;;;;;;;5095692;28;20830;-67
2023/08/04 14:26:07;;;;;;;2.93;2.10;;;;;;;;;;5095899;28;20443;-67
2023/08/04 14:28:34;;;;;;;2.03;1.07;;;;;;;;;;5095825;28;20538;-67
2023/08/04 14:31:02;;;;;;;1.63;1.30;;;;;;;;;;5095736;28;20542;-68
2023/08/04 14:33:29;;;;;;;1.50;1.20;;;;;;;;;;5095681;28;20482;-67
2023/08/04 14:35:56;;;;;;;4.77;1.60;;;;;;;;;;5095549;28;20542;-67
2023/08/04 14:38:23;;;;;;;2.23;1.67;;;;;;;;;;5095739;28;20447;-67
2023/08/04 14:40:50;;;;;;;4.47;1.90;;;;;;;;;;5095609;28;20443;-67
2023/08/04 14:43:17;;;;;;;2.90;1.47;;;;;;;;;;5095459;28;20449;-67
2023/08/04 14:45:43;;;;;;;2.20;2.00;;;;;;;;;;5095422;28;20533;-67